Home > Products > Valid Products > MTR

000
SAUS46 KSTO 220753
MTRBLU
METAR KBLU 220752Z AUTO 09003KT 4SM HZ CLR 16/04 A3019 RMK AO2 SLPNO
T01610039 401830150





000
SAUS46 KSTO 220731
MTRBLU
SPECI KBLU 220729Z AUTO 07003KT 3SM HZ SCT007 16/04 A3019 RMK AO2
T01610039





000
SAUS46 KSTO 220653
MTRBLU
METAR KBLU 220652Z AUTO 09003KT 2 1/2SM HZ OVC007 16/04 A3020 RMK
AO2 SLPNO T01560044





000
SAUS46 KSTO 220646
MTRBLU
SPECI KBLU 220645Z AUTO 09003KT 2 1/2SM HZ OVC007 16/04 A3020 RMK
AO2 T01560044





000
SAUS46 KSTO 220631
MTRBLU
SPECI KBLU 220630Z AUTO 09003KT 3SM HZ BKN005 16/04 A3020 RMK AO2
T01560044





000
SAUS46 KSTO 220622
MTRBLU
SPECI KBLU 220621Z AUTO 10003KT 3SM HZ SCT005 16/04 A3020 RMK AO2
T01560044





000
SAUS46 KSTO 220609
MTRBLU
SPECI KBLU 220608Z AUTO 09003KT 3SM HZ CLR 16/04 A3020 RMK AO2
T01560044





000
SAUS46 KSTO 220553
MTRBLU
METAR KBLU 220552Z AUTO 00000KT 2 1/2SM HZ CLR 16/04 A3020 RMK AO2
SLPNO T01610044 10183 20156 51004





000
SAUS46 KSTO 220501
MTRBLU
SPECI KBLU 220459Z AUTO 11003KT 3SM HZ SCT013 16/05 A3019 RMK AO2
T01560050





000
SAUS46 KSTO 220454
MTRBLU
METAR KBLU 220452Z AUTO 11003KT 3SM HZ BKN013 16/05 A3019 RMK AO2
SLPNO T01610050





000
SAUS46 KSTO 220409
MTRBLU
SPECI KBLU 220407Z AUTO 00000KT 3SM HZ BKN014 17/05 A3020 RMK AO2
T01670050





000
SAUS46 KSTO 220353
MTRBLU
METAR KBLU 220352Z AUTO 00000KT 3SM HZ FEW012 17/05 A3020 RMK AO2
SLPNO T01670050





000
SAUS46 KSTO 220254
MTRBLU
METAR KBLU 220252Z AUTO 00000KT 4SM HZ FEW020 OVC075 17/06 A3018 RMK
AO2 SLPNO T01670056 53005





000
SAUS46 KSTO 220237
MTRBLU
SPECI KBLU 220235Z AUTO 00000KT 4SM HZ SCT019 OVC075 17/06 A3018 RMK
AO2 T01670056





000
SAUS46 KSTO 220220
MTRBLU
SPECI KBLU 220218Z AUTO 00000KT 4SM HZ BKN018 OVC075 17/06 A3018 RMK
AO2 T01670061





000
SAUS46 KSTO 220154
MTRBLU
METAR KBLU 220152Z AUTO 00000KT 2 1/2SM HZ BKN019 17/06 A3017 RMK
AO2 SLPNO T01670061





000
SAUS46 KSTO 220054
MTRBLU
METAR KBLU 220052Z AUTO 00000KT 2 1/2SM HZ OVC090 18/06 A3017 RMK
AO2 SLPNO T01830056





000
SAUS46 KSTO 220005
MTRBLU
SPECI KBLU 220003Z AUTO 15003KT 2SM HZ FEW015 OVC080 18/06 A3017 RMK
AO2 T01780061





000
SAUS46 KSTO 212354
MTRBLU
METAR KBLU 212352Z AUTO 15004KT 1 3/4SM HZ BKN080 OVC090 18/06 A3017
RMK AO2 SLPNO 6//// T01780061





000
SAUS46 KSTO 212334
MTRBLU
SPECI KBLU 212333Z AUTO 13003KT 2SM HZ 18/06 A3017 RMK AO2 T01780061





000
SAUS46 KSTO 202253
MTRBLU
METAR KBLU 202252Z AUTO VRB03KT 2 1/2SM HZ SCT038 22/06 A3013 RMK
AO2 SLP120 T02170056





000
SAUS46 KSTO 202245
MTRBLU
SPECI KBLU 202243Z AUTO 15004KT 2 1/2SM HZ FEW042 22/05 A3013 RMK
AO2 T02170050





000
SAUS46 KSTO 202236
MTRBLU
SPECI KBLU 202235Z AUTO 15003KT 3SM HZ CLR 22/05 A3013 RMK AO2
T02170050





000
SAUS46 KSTO 202219
MTRBLU
SPECI KBLU 202218Z AUTO 15004KT 2 1/2SM HZ FEW037 21/06 A3013 RMK
AO2 T02110061





000
SAUS46 KSTO 202153
MTRBLU
METAR KBLU 202152Z AUTO 18005KT 3SM HZ FEW034 22/05 A3013 RMK AO2
SLP105 T02170050





000
SAUS46 KSTO 202122
MTRBLU
SPECI KBLU 202121Z AUTO 16005KT 3SM HZ FEW034 22/06 A3014 RMK AO2
T02170061





000
SAUS46 KSTO 202053
MTRBLU
METAR KBLU 202052Z AUTO VRB04KT 2 1/2SM HZ SCT023 21/07 A3014 RMK
AO2 SLP107 T02110067 58001





000
SAUS46 KSTO 202024
MTRBLU
SPECI KBLU 202023Z AUTO 19005KT 2 1/2SM HZ BKN027 22/07 A3014 RMK
AO2 T02170072





000
SAUS46 KSTO 202014
MTRBLU
SPECI KBLU 202013Z AUTO VRB03KT 3SM HZ FEW018 BKN023 21/07 A3014 RMK
AO2 T02110067





000
SAUS46 KSTO 201953
MTRBLU
METAR KBLU 201952Z AUTO VRB04KT 2SM HZ OVC017 22/07 A3014 RMK AO2
SLP108 T02220067





000
SAUS46 KSTO 201944
MTRBLU
SPECI KBLU 201942Z AUTO 21007KT 1 3/4SM HZ OVC017 22/06 A3014 RMK
AO2 T02220061





000
SAUS46 KSTO 201932
MTRBLU
SPECI KBLU 201931Z AUTO VRB05KT 2SM HZ BKN015 23/06 A3014 RMK AO2
T02280056





000
SAUS46 KSTO 201913
MTRBLU
SPECI KBLU 201912Z AUTO 22007KT 190V260 2SM HZ FEW017 22/03 A3014
RMK AO2 T02220028





000
SAUS46 KSTO 201853
MTRBLU
METAR KBLU 201852Z AUTO 23007KT 4SM HZ CLR 22/05 A3014 RMK AO2
SLP104 T02220050





000
SAUS46 KSTO 201753
MTRBLU
METAR KBLU 201752Z AUTO 26003KT 6SM HZ CLR 23/03 A3014 RMK AO2
SLP105 T02280033 10233 20156 51007





000
SAUS46 KSTO 201653
MTRBLU
METAR KBLU 201652Z AUTO 34003KT 10SM CLR 23/02 A3013 RMK AO2 SLP099
T02330017





000
SAUS46 KSTO 201554
MTRBLU
METAR KBLU 201552Z AUTO 28003KT 9SM CLR 20/03 A3013 RMK AO2 SLP107
T02000028





000
SAUS46 KSTO 201454
MTRBLU
METAR KBLU 201452Z AUTO 00000KT 10SM CLR 19/02 A3012 RMK AO2 SLP111
T01940017 53005





000
SAUS46 KSTO 201354
MTRBLU
METAR KBLU 201352Z AUTO 00000KT 9SM CLR 18/02 A3010 RMK AO2 SLP110
T01780022





000
SAUS46 KSTO 201254
MTRBLU
METAR KBLU 201252Z AUTO VRB06KT 8SM CLR 19/02 A3009 RMK AO2 SLP098
T01940017





000
SAUS46 KSTO 201245
MTRBLU
SPECI KBLU 201244Z AUTO 05003KT 4SM HZ CLR 18/04 A3010 RMK AO2
T01780039





000
SAUS46 KSTO 201219
MTRBLU
SPECI KBLU 201218Z AUTO 00000KT 2 1/2SM HZ CLR 17/06 A3010 RMK AO2
T01670056





000
SAUS46 KSTO 201153
MTRBLU
METAR KBLU 201152Z AUTO 00000KT 3SM HZ CLR 16/06 A3010 RMK AO2
SLP105 T01610056 10211 20150 57003





000
SAUS46 KSTO 201053
MTRBLU
METAR KBLU 201052Z AUTO VRB03KT 5SM HZ CLR 15/06 A3010 RMK AO2
SLP106 T01500061





000
SAUS46 KSTO 200953
MTRBLU
METAR KBLU 200952Z AUTO 02003KT 10SM CLR 21/01 A3010 RMK AO2 SLP088
T02060011





000
SAUS46 KSTO 200853
MTRBLU
METAR KBLU 200852Z AUTO 05004KT 10SM CLR 21/01 A3011 RMK AO2 SLP090
T02060011 52002





000
SAUS46 KSTO 200754
MTRBLU
METAR KBLU 200752Z AUTO 05003KT 10SM CLR 20/02 A3010 RMK AO2 SLP086
T02000017 402610144





000
SAUS46 KSTO 200653
MTRBLU
METAR KBLU 200652Z AUTO VRB04KT 10SM CLR 21/02 A3010 RMK AO2 SLP086
T02060017





000
SAUS46 KSTO 200553
MTRBLU
METAR KBLU 200552Z AUTO VRB03KT 10SM CLR 20/01 A3010 RMK AO2 SLP091
T02000011 10211 20172 53007





000
SAUS46 KSTO 200453
MTRBLU
METAR KBLU 200452Z AUTO 04004KT 10SM CLR 21/02 A3009 RMK AO2 SLP093
T02060017





000
SAUS46 KSTO 200353
MTRBLU
METAR KBLU 200352Z AUTO 04003KT 10SM CLR 21/05 A3009 RMK AO2 SLP095
T02060050





000
SAUS46 KSTO 200254
MTRBLU
METAR KBLU 200252Z AUTO 06004KT 7SM SCT090 18/11 A3008 RMK AO2
SLP104 T01830106 52005





000
SAUS46 KSTO 200153
MTRBLU
METAR KBLU 200152Z AUTO 00000KT 4SM HZ FEW090 18/10 A3007 RMK AO2
SLP104 T01830100





000
SAUS46 KSTO 200053
MTRBLU
METAR KBLU 200052Z AUTO 29003KT 4SM HZ CLR 20/11 A3007 RMK AO2
SLP100 T02000106





000
SAUS46 KSTO 192353
MTRBLU
METAR KBLU 192352Z AUTO 26006KT 6SM HZ CLR 21/10 A3006 RMK AO2
SLP091 T02110100 10261 20211 55002





000
SAUS46 KSTO 192253
MTRBLU
METAR KBLU 192252Z AUTO 23005KT 10SM FEW100 23/08 A3005 RMK AO2
SLP090 T02280083





000
SAUS46 KSTO 192153
MTRBLU
METAR KBLU 192152Z AUTO 26010KT 10SM SCT085 23/08 A3006 RMK AO2
SLP087 T02330078





000
SAUS46 KSTO 192053
MTRBLU
METAR KBLU 192052Z AUTO 30005KT 9SM BKN080 23/07 A3007 RMK AO2
SLP094 T02330072 58006





000
SAUS46 KSTO 191953
MTRBLU
METAR KBLU 191952Z AUTO VRB04KT 10SM CLR 26/02 A3007 RMK AO2 SLP086
T02560022





000
SAUS46 KSTO 191853
MTRBLU
METAR KBLU 191852Z AUTO 08009KT 10SM CLR 24/02 A3008 RMK AO2 SLP096
T02440022





000
SAUS46 KSTO 191753
MTRBLU
METAR KBLU 191752Z AUTO 07009KT 020V120 10SM CLR 23/03 A3008 RMK AO2
SLP101 T02330033 10233 20144 51004





000
SAUS46 KSTO 191653
MTRBLU
METAR KBLU 191652Z AUTO 06007KT 010V090 10SM CLR 21/03 A3008 RMK AO2
SLP109 T02060028





000
SAUS46 KSTO 191553
MTRBLU
METAR KBLU 191552Z AUTO VRB03KT 10SM CLR 19/03 A3008 RMK AO2 SLP114
T01890028





000
SAUS46 KSTO 191453
MTRBLU
METAR KBLU 191452Z AUTO 28005KT 10SM CLR 17/01 A3007 RMK AO2 SLP114
T01720011 53005





000
SAUS46 KSTO 191353
MTRBLU
METAR KBLU 191352Z AUTO VRB04KT 10SM CLR 16/02 A3006 RMK AO2 SLP110
T01560017





000
SAUS46 KSTO 191253
MTRBLU
METAR KBLU 191252Z AUTO 06005KT 10SM CLR 15/02 A3005 RMK AO2 SLP104
T01500017





000
SAUS46 KSTO 191153
MTRBLU
METAR KBLU 191152Z AUTO 08003KT 8SM CLR 16/03 A3005 RMK AO2 SLP102
T01610033 10161 20144 58003





000
SAUS46 KSTO 191053
MTRBLU
METAR KBLU 191052Z AUTO VRB04KT 6SM HZ FEW110 15/04 A3006 RMK AO2
SLP104 T01500044





000
SAUS46 KSTO 191037
MTRBLU
SPECI KBLU 191036Z AUTO 05004KT 5SM HZ SCT023 16/04 A3006 RMK AO2
T01560044





000
SAUS46 KSTO 190954
MTRBLU
METAR KBLU 190952Z AUTO 05005KT 5SM HZ OVC023 16/04 A3006 RMK AO2
SLP105 T01560044





000
SAUS46 KSTO 190854
MTRBLU
METAR KBLU 190852Z AUTO 05005KT 3SM HZ OVC019 14/06 A3006 RMK AO2
SLP112 T01440056 56002





000
SAUS46 KSTO 190835
MTRBLU
SPECI KBLU 190834Z AUTO 04005KT 3SM HZ OVC019 14/06 A3006 RMK AO2
T01440056





    US Dept of Commerce
    National Oceanic and Atmospheric Administration
    National Weather Service
    1325 East West Highway
    Silver Spring, MD 20910
    Page Author: NWS Internet Services Team
Disclaimer
Information Quality
Credits
Glossary
Privacy Policy
Freedom of Information Act (FOIA)
About Us
Career Opportunities